Aviation Digital Data Service (ADDS)

Output produced by TAFs form (0419 UTC 16 April 2014)
found at http://aviationweather.gov/adds/tafs/
 
KGUP 152325Z 1600/1624 24015G22KT P6SM BKN250 
     FM160200 22006KT P6SM BKN250 
     FM160600 VRB06KT P6SM BKN250 
     FM161500 25006KT P6SM SCT150 BKN250 
     FM162000 27015KT P6SM BKN150 BKN250